createdAt,value
2018-04-27T07:05:46.261Z,10.96
2018-04-27T07:06:46.174Z,11.15
2018-04-27T07:07:46.098Z,11.18
2018-04-27T07:08:46.023Z,11.02
2018-04-27T07:09:45.937Z,11.22
2018-04-27T07:10:45.861Z,11.43
2018-04-27T07:11:45.776Z,11.54
2018-04-27T07:12:45.700Z,11.65
2018-04-27T07:13:45.613Z,11.80
2018-04-27T07:14:45.538Z,11.91
2018-04-27T07:15:45.450Z,12.16
2018-04-27T07:16:45.376Z,12.42
2018-04-27T07:17:45.300Z,12.57
2018-04-27T07:18:45.213Z,12.87
2018-04-27T07:19:45.138Z,13.00
2018-04-27T07:20:45.052Z,13.36
2018-04-27T07:21:44.975Z,13.33
2018-04-27T07:22:44.900Z,13.75
2018-04-27T07:23:44.815Z,13.99
2018-04-27T07:24:44.739Z,13.62
2018-04-27T07:25:44.664Z,13.39
2018-04-27T07:26:44.590Z,13.60
2018-04-27T07:27:44.501Z,13.91
2018-04-27T07:28:44.426Z,14.09
2018-04-27T07:29:44.351Z,14.28
2018-04-27T07:30:44.267Z,14.40
2018-04-27T07:31:44.189Z,14.46
2018-04-27T07:32:44.116Z,14.50
2018-04-27T07:33:44.040Z,14.73
2018-04-27T07:34:43.952Z,14.80
2018-04-27T07:35:43.879Z,15.10
2018-04-27T07:36:43.802Z,15.64
2018-04-27T07:37:43.727Z,16.02
2018-04-27T07:38:43.641Z,16.24
2018-04-27T07:39:43.829Z,15.74
2018-04-27T07:40:43.490Z,15.54
2018-04-27T07:41:43.418Z,15.02
2018-04-27T07:42:43.340Z,14.98
2018-04-27T07:43:43.266Z,14.50
2018-04-27T07:44:43.191Z,14.58
2018-04-27T07:45:43.116Z,14.62
2018-04-27T07:46:43.027Z,14.88
2018-04-27T07:47:42.953Z,15.43
2018-04-27T07:48:42.877Z,15.76
2018-04-27T07:49:42.818Z,16.12
2018-04-27T07:50:42.727Z,15.03
2018-04-27T07:51:42.655Z,14.69
2018-04-27T07:52:42.578Z,14.35
2018-04-27T07:53:42.516Z,14.83
2018-04-27T07:54:42.417Z,15.07
2018-04-27T07:55:42.342Z,15.64
2018-04-27T07:56:42.266Z,15.29
2018-04-27T07:57:42.196Z,15.59
2018-04-27T07:58:42.117Z,15.89
2018-04-27T07:59:42.042Z,16.00
2018-04-27T08:00:41.967Z,16.43
2018-04-27T08:01:41.893Z,16.89
2018-04-27T08:02:41.817Z,17.28
2018-04-27T08:03:41.743Z,16.78
2018-04-27T08:04:41.668Z,16.98
2018-04-27T08:05:41.594Z,16.78
2018-04-27T08:06:41.520Z,17.51
2018-04-27T08:07:41.432Z,17.66
2018-04-27T08:08:41.368Z,18.02
2018-04-27T08:09:41.281Z,17.15
2018-04-27T08:10:41.206Z,16.34
2018-04-27T08:11:41.132Z,16.00
2018-04-27T08:12:41.068Z,15.68
2018-04-27T08:13:40.986Z,15.50
2018-04-27T08:14:40.907Z,15.62
2018-04-27T08:15:40.832Z,15.60
2018-04-27T08:16:40.769Z,16.52
2018-04-27T08:17:40.698Z,17.19
2018-04-27T08:18:40.657Z,17.97
2018-04-27T08:19:40.794Z,17.44
2018-04-27T08:20:40.469Z,17.58
2018-04-27T08:21:40.394Z,18.10
2018-04-27T08:22:40.320Z,18.20
2018-04-27T08:23:40.249Z,18.10
2018-04-27T08:24:40.249Z,18.30
2018-04-27T08:25:40.095Z,17.92
2018-04-27T08:26:40.020Z,17.34
2018-04-27T08:27:39.945Z,17.77
2018-04-27T08:28:39.874Z,17.14
2018-04-27T08:29:39.807Z,15.69
2018-04-27T08:30:39.732Z,15.67
2018-04-27T08:31:39.657Z,16.48
2018-04-27T08:32:39.595Z,16.85
2018-04-27T08:33:39.507Z,17.55
2018-04-27T08:34:39.431Z,18.23
2018-04-27T08:35:39.358Z,18.67
2018-04-27T08:36:39.295Z,18.37
2018-04-27T08:37:39.224Z,17.99
2018-04-27T08:38:39.146Z,17.72
2018-04-27T08:39:39.070Z,17.21
2018-04-27T08:40:38.998Z,16.81
2018-04-27T08:41:38.921Z,16.81
2018-04-27T08:42:38.858Z,16.97
2018-04-27T08:43:38.796Z,17.14
2018-04-27T08:44:38.708Z,17.34
2018-04-27T08:45:38.633Z,17.18
2018-04-27T08:46:38.559Z,17.43
2018-04-27T08:47:38.486Z,18.10
2018-04-27T08:48:38.422Z,18.69
2018-04-27T08:49:38.348Z,19.18
2018-04-27T08:50:38.274Z,19.25
2018-04-27T08:51:38.205Z,19.39
2018-04-27T08:52:38.149Z,19.55
2018-04-27T08:53:38.059Z,18.99
2018-04-27T08:54:37.985Z,18.37
2018-04-27T08:55:37.910Z,18.70
2018-04-27T08:56:37.852Z,18.35
2018-04-27T08:57:37.775Z,18.50
2018-04-27T08:58:37.699Z,18.84
2018-04-27T08:59:37.627Z,19.40
2018-04-27T09:00:37.563Z,19.39
2018-04-27T09:01:37.486Z,18.62
2018-04-27T09:02:37.415Z,17.96
2018-04-27T09:03:37.350Z,17.68
2018-04-27T09:04:37.275Z,18.33
2018-04-27T09:05:37.201Z,18.60
2018-04-27T09:06:37.143Z,18.67
2018-04-27T09:07:37.063Z,18.69
2018-04-27T09:08:36.988Z,18.18
2018-04-27T09:09:36.915Z,18.55
2018-04-27T09:10:36.852Z,18.58
2018-04-27T09:11:36.778Z,18.67
2018-04-27T09:12:36.713Z,18.85
2018-04-27T09:13:36.639Z,19.16
2018-04-27T09:14:36.564Z,19.32
2018-04-27T09:15:36.503Z,18.91
2018-04-27T09:16:36.428Z,18.80
2018-04-27T09:17:36.360Z,18.36
2018-04-27T09:18:36.289Z,18.60
2018-04-27T09:19:36.215Z,18.52
2018-04-27T09:20:36.141Z,18.32
2018-04-27T09:21:36.136Z,19.02
2018-04-27T09:22:36.003Z,18.87
2018-04-27T09:23:35.940Z,18.57
2018-04-27T09:24:35.865Z,18.73
2018-04-27T09:25:35.791Z,19.29
2018-04-27T09:26:35.729Z,19.25
2018-04-27T09:27:35.654Z,19.06
2018-04-27T09:28:35.585Z,18.90
2018-04-27T09:29:35.516Z,18.05
2018-04-27T09:30:35.442Z,18.63
2018-04-27T09:31:35.379Z,18.54
2018-04-27T09:32:35.304Z,18.41
2018-04-27T09:33:35.230Z,18.11
2018-04-27T09:34:35.180Z,17.51
2018-04-27T09:35:35.091Z,17.41
2018-04-27T09:36:35.017Z,17.59
2018-04-27T09:37:34.956Z,17.23
2018-04-27T09:38:34.880Z,16.41
2018-04-27T09:39:34.804Z,16.50
2018-04-27T09:40:34.730Z,16.88
2018-04-27T09:41:34.671Z,16.97
2018-04-27T09:42:34.592Z,17.36
2018-04-27T09:43:34.517Z,17.26
2018-04-27T09:44:34.442Z,16.79
2018-04-27T09:45:34.368Z,16.61
2018-04-27T09:46:34.293Z,16.50
2018-04-27T09:47:34.219Z,16.73
2018-04-27T09:48:34.155Z,16.58
2018-04-27T09:49:34.080Z,16.96
2018-04-27T09:50:34.006Z,17.23
2018-04-27T09:51:33.931Z,17.01
2018-04-27T09:52:33.857Z,17.25
2018-04-27T09:53:33.781Z,16.94
2018-04-27T09:54:33.706Z,17.22
2018-04-27T09:55:33.632Z,16.61
2018-04-27T09:56:33.557Z,16.38
2018-04-27T09:57:33.518Z,16.56
2018-04-27T09:58:33.406Z,16.46
2018-04-27T09:59:33.331Z,16.57
2018-04-27T10:00:33.256Z,16.79
2018-04-27T10:01:33.181Z,17.00
2018-04-27T10:02:33.108Z,17.18
2018-04-27T10:03:33.031Z,17.25
2018-04-27T10:04:32.957Z,17.12
2018-04-27T10:05:32.881Z,16.71
2018-04-27T10:06:32.807Z,16.50
2018-04-27T10:07:32.742Z,16.78
2018-04-27T10:08:32.656Z,16.79
2018-04-27T10:09:32.582Z,16.07
2018-04-27T10:10:32.507Z,16.12
2018-04-27T10:11:32.432Z,16.23
2018-04-27T10:12:32.357Z,16.08
2018-04-27T10:13:32.282Z,15.93
2018-04-27T10:14:32.208Z,16.39
2018-04-27T10:15:32.137Z,16.31
2018-04-27T10:16:32.058Z,16.27
2018-04-27T10:17:31.984Z,16.52
2018-04-27T10:18:31.895Z,16.67
2018-04-27T10:19:31.820Z,17.03
2018-04-27T10:20:31.749Z,17.51
2018-04-27T10:21:31.683Z,17.68
2018-04-27T10:22:31.595Z,17.44
2018-04-27T10:23:31.520Z,17.62
2018-04-27T10:26:55.611Z,16.89
2018-04-27T10:27:55.547Z,16.21
2018-04-27T10:28:55.461Z,16.20
2018-04-27T10:29:55.387Z,16.05
2018-04-27T10:30:55.313Z,16.24
2018-04-27T10:31:55.235Z,16.67
2018-04-27T10:32:55.160Z,16.23
2018-04-27T10:33:55.088Z,16.05
2018-04-27T10:34:55.010Z,16.49
2018-04-27T10:35:54.934Z,16.60
2018-04-27T10:36:54.860Z,16.11
2018-04-27T10:37:54.785Z,16.23
2018-04-27T10:38:54.698Z,16.30
2018-04-27T10:39:54.634Z,16.97
2018-04-27T10:40:54.547Z,17.03
2018-04-27T10:41:54.472Z,17.21
2018-04-27T10:42:54.399Z,17.72
2018-04-27T10:43:54.322Z,18.20
2018-04-27T10:44:54.247Z,18.67
2018-04-27T10:45:54.172Z,18.88
2018-04-27T10:46:54.097Z,18.52
2018-04-27T10:47:54.023Z,18.42
2018-04-27T10:48:53.948Z,18.36
2018-04-27T10:49:53.871Z,18.27
2018-04-27T10:50:53.797Z,18.47
2018-04-27T10:51:53.722Z,18.75
2018-04-27T10:52:53.647Z,19.16
2018-04-27T10:53:53.572Z,20.50
2018-04-27T10:54:53.498Z,21.35
2018-04-27T10:55:53.423Z,22.14
2018-04-27T10:56:53.351Z,22.68
2018-04-27T10:57:53.285Z,23.12
2018-04-27T10:58:53.210Z,22.52
2018-04-27T10:59:53.137Z,23.10
2018-04-27T11:00:53.062Z,23.17
2018-04-27T11:01:52.998Z,22.46
2018-04-27T11:02:52.927Z,22.40
2018-04-27T11:03:52.862Z,22.90
2018-04-27T11:04:52.788Z,23.07
2018-04-27T11:05:52.724Z,23.33
2018-04-27T11:06:52.649Z,23.33
2018-04-27T11:07:52.588Z,23.17
2018-04-27T11:08:52.514Z,23.76
2018-04-27T11:09:52.454Z,23.19
2018-04-27T11:10:52.417Z,21.65
2018-04-27T11:11:52.314Z,21.14
2018-04-27T11:12:52.251Z,20.51
2018-04-27T11:13:52.176Z,19.96
2018-04-27T11:14:52.114Z,19.76
2018-04-27T11:15:52.056Z,19.51
2018-04-27T11:16:52.175Z,20.14
2018-04-27T11:17:51.915Z,20.74
2018-04-27T11:18:51.840Z,20.95
2018-04-27T11:19:51.783Z,21.21
2018-04-27T11:20:51.704Z,20.95
2018-04-27T11:21:51.648Z,21.37
2018-04-27T11:22:51.578Z,21.56
2018-04-27T11:23:51.502Z,21.54
2018-04-27T11:24:51.445Z,22.07
2018-04-27T11:25:51.370Z,22.67
2018-04-27T11:26:51.303Z,21.28
2018-04-27T11:27:51.229Z,21.59
2018-04-27T11:28:51.168Z,21.10
2018-04-27T11:29:51.104Z,21.37
2018-04-27T11:30:51.034Z,22.37
2018-04-27T11:31:50.969Z,23.36
2018-04-27T11:32:50.892Z,23.38
2018-04-27T11:33:50.833Z,23.80
2018-04-27T11:34:50.769Z,23.28
2018-04-27T11:35:50.693Z,22.10
2018-04-27T11:36:50.630Z,22.12
2018-04-27T11:37:50.569Z,21.79
2018-04-27T11:38:50.493Z,22.58
2018-04-27T11:39:50.431Z,22.70
2018-04-27T11:40:50.369Z,22.03
2018-04-27T11:41:50.306Z,19.84
2018-04-27T11:42:50.231Z,20.14
2018-04-27T11:43:50.170Z,20.99
2018-04-27T11:44:50.106Z,20.13
2018-04-27T11:45:50.031Z,19.33
2018-04-27T11:46:49.969Z,18.90
2018-04-27T11:47:49.959Z,18.35
2018-04-27T11:48:49.831Z,19.02
2018-04-27T11:49:49.770Z,19.88
2018-04-27T11:50:49.707Z,20.70
2018-04-27T11:51:49.632Z,20.55
2018-04-27T11:52:49.569Z,20.17
2018-04-27T11:53:49.497Z,20.48
2018-04-27T11:54:49.431Z,20.35
2018-04-27T11:55:49.358Z,20.14
2018-04-27T11:56:49.295Z,18.84
2018-04-27T11:57:49.232Z,18.69
2018-04-27T11:58:49.161Z,18.69
2018-04-27T11:59:49.095Z,18.41
2018-04-27T12:00:49.059Z,18.76
2018-04-27T12:01:49.020Z,19.78
2018-04-27T12:02:48.884Z,20.62
2018-04-27T12:03:48.820Z,20.97
2018-04-27T12:04:48.749Z,21.58
2018-04-27T12:05:48.684Z,21.52
2018-04-27T12:06:48.607Z,22.28
2018-04-27T12:07:48.546Z,21.71
2018-04-27T12:08:48.470Z,21.29
2018-04-27T12:09:48.409Z,19.88
2018-04-27T12:10:48.333Z,19.50
2018-04-27T12:11:48.271Z,19.33
2018-04-27T12:12:48.197Z,19.11
2018-04-27T12:13:48.133Z,19.08
2018-04-27T12:14:48.058Z,18.95
2018-04-27T12:15:47.984Z,19.98
2018-04-27T12:16:47.922Z,20.77
2018-04-27T12:17:47.846Z,21.09
2018-04-27T12:18:47.784Z,21.64
2018-04-27T12:19:47.710Z,21.90
2018-04-27T12:20:47.647Z,22.28
2018-04-27T12:21:47.577Z,22.55
2018-04-27T12:22:47.508Z,22.72
2018-04-27T12:23:47.435Z,22.82
2018-04-27T12:24:47.372Z,22.91
2018-04-27T12:25:47.298Z,23.15
2018-04-27T12:26:47.236Z,23.04
2018-04-27T12:27:47.160Z,23.05
2018-04-27T12:28:47.097Z,22.03
2018-04-27T12:29:47.023Z,21.31
2018-04-27T12:30:46.967Z,21.40
2018-04-27T12:31:46.973Z,21.62
2018-04-27T12:32:46.827Z,20.89
2018-04-27T12:33:46.777Z,21.21
2018-04-27T12:34:46.687Z,20.03
2018-04-27T12:35:46.624Z,19.55
2018-04-27T12:36:46.548Z,19.48
2018-04-27T12:37:46.485Z,19.78
2018-04-27T12:38:46.495Z,18.67
2018-04-27T12:39:46.352Z,18.62
2018-04-27T12:40:46.315Z,18.36
2018-04-27T12:41:46.211Z,18.35
2018-04-27T12:42:46.140Z,18.03
2018-04-27T12:43:46.077Z,18.44
2018-04-27T12:44:46.005Z,18.50
2018-04-27T12:45:45.938Z,18.07
2018-04-27T12:46:45.875Z,18.23
2018-04-27T12:47:45.786Z,19.11
2018-04-27T12:48:45.726Z,18.84
2018-04-27T12:49:45.650Z,19.31
2018-04-27T12:50:45.576Z,19.43
2018-04-27T12:51:45.512Z,19.68
2018-04-27T12:52:45.438Z,20.06
2018-04-27T12:53:45.376Z,20.55
2018-04-27T12:54:45.288Z,21.07
2018-04-27T12:55:45.226Z,21.32
2018-04-27T12:56:45.151Z,20.58
2018-04-27T12:57:45.077Z,20.55
2018-04-27T12:58:45.013Z,20.85
2018-04-27T12:59:44.950Z,19.62
2018-04-27T13:00:44.877Z,19.76
2018-04-27T13:01:44.801Z,20.05
2018-04-27T13:02:44.727Z,19.54
2018-04-27T13:03:44.664Z,19.44
2018-04-27T13:04:44.590Z,19.04
2018-04-27T13:05:44.513Z,18.66
2018-04-27T13:06:44.453Z,18.20
2018-04-27T13:07:44.378Z,17.56
2018-04-27T13:08:44.302Z,17.41
2018-04-27T13:09:44.239Z,17.14
2018-04-27T13:10:44.164Z,17.33
2018-04-27T13:11:44.090Z,17.79
2018-04-27T13:12:44.016Z,18.25
2018-04-27T13:13:43.954Z,18.25
2018-04-27T13:14:43.879Z,17.96
2018-04-27T13:15:43.804Z,17.97
2018-04-27T13:16:43.728Z,18.07
2018-04-27T13:17:43.670Z,18.07
2018-04-27T13:18:43.591Z,17.97
2018-04-27T13:19:43.515Z,17.86
2018-04-27T13:20:43.444Z,18.10
2018-04-27T13:21:43.365Z,18.10
2018-04-27T13:22:43.291Z,18.11
2018-04-27T13:23:43.220Z,17.78
2018-04-27T13:24:43.154Z,17.28
2018-04-27T13:25:43.086Z,17.38
2018-04-27T13:26:43.005Z,17.52
2018-04-27T13:27:42.929Z,17.66
2018-04-27T13:28:42.855Z,17.72
2018-04-27T13:29:42.784Z,17.72
2018-04-27T13:30:42.704Z,17.72
2018-04-27T13:31:42.629Z,17.77
2018-04-27T13:32:42.566Z,17.46
2018-04-27T13:33:42.491Z,17.48
2018-04-27T13:34:42.416Z,17.58
2018-04-27T13:35:42.343Z,17.62
2018-04-27T13:36:42.281Z,17.54
2018-04-27T13:37:42.192Z,17.66
2018-04-27T13:38:42.118Z,17.81
2018-04-27T13:39:42.042Z,17.54
2018-04-27T13:40:41.971Z,17.77
2018-04-27T13:41:41.892Z,17.64
2018-04-27T13:42:41.817Z,17.93
2018-04-27T13:43:41.743Z,17.95
2018-04-27T13:44:41.668Z,17.93
2018-04-27T13:45:41.593Z,17.81
2018-04-27T13:46:41.532Z,17.86
2018-04-27T13:47:41.444Z,17.30
2018-04-27T13:48:41.370Z,17.33
2018-04-27T13:49:41.306Z,17.55
2018-04-27T13:50:41.233Z,17.70
2018-04-27T13:51:41.159Z,17.44
2018-04-27T13:52:41.082Z,17.62
2018-04-27T13:53:41.007Z,17.62
2018-04-27T13:54:40.932Z,17.77
2018-04-27T13:55:40.858Z,17.63
2018-04-27T13:56:40.782Z,17.87
2018-04-27T13:57:40.711Z,17.92
2018-04-27T13:58:40.633Z,17.77
2018-04-27T13:59:40.558Z,17.93
2018-04-27T14:00:40.487Z,18.08
2018-04-27T14:01:40.408Z,17.93
2018-04-27T14:02:40.389Z,17.92
2018-04-27T14:03:40.258Z,18.25
2018-04-27T14:04:40.183Z,18.18
2018-04-27T14:05:40.190Z,18.30
2018-04-27T14:06:40.034Z,18.37
2018-04-27T14:07:39.958Z,18.37
2018-04-27T14:08:39.884Z,18.05
2018-04-27T14:09:39.885Z,17.59
2018-04-27T14:10:39.734Z,17.38
2018-04-27T14:11:39.662Z,17.41
2018-04-27T14:12:39.584Z,17.46
2018-04-27T14:13:39.510Z,17.49
2018-04-27T14:14:39.434Z,17.77
2018-04-27T14:15:39.361Z,17.75
2018-04-27T14:16:39.285Z,17.84
2018-04-27T14:17:39.219Z,17.79
2018-04-27T14:18:39.135Z,17.90
2018-04-27T14:19:39.061Z,17.92
2018-04-27T14:20:38.985Z,18.02
2018-04-27T14:21:38.914Z,18.03
2018-04-27T14:22:38.836Z,18.21
2018-04-27T14:23:38.761Z,18.25
2018-04-27T14:24:38.698Z,18.37
2018-04-27T14:25:38.622Z,18.60
2018-04-27T14:26:38.549Z,18.25
2018-04-27T14:27:38.473Z,18.12
2018-04-27T14:28:38.398Z,17.79
2018-04-27T14:29:38.340Z,17.59
2018-04-27T14:30:38.252Z,17.56
2018-04-27T14:31:38.174Z,17.66
2018-04-27T14:32:38.098Z,17.59
2018-04-27T14:33:38.023Z,17.30
2018-04-27T14:34:37.950Z,17.52
2018-04-27T14:35:37.873Z,17.54
2018-04-27T14:36:37.812Z,17.59
2018-04-27T14:37:37.727Z,17.66
2018-04-27T14:38:37.649Z,17.55
2018-04-27T14:39:37.573Z,17.40
2018-04-27T14:40:37.512Z,17.46
2018-04-27T14:41:37.424Z,17.31
2018-04-27T14:42:37.349Z,17.54
2018-04-27T14:43:37.274Z,17.56
2018-04-27T14:44:37.200Z,17.38
2018-04-27T14:45:37.128Z,17.44
2018-04-27T14:46:37.072Z,17.31
2018-04-27T14:47:36.964Z,17.49
2018-04-27T14:48:36.899Z,17.28
2018-04-27T14:49:36.813Z,17.44
2018-04-27T14:50:36.738Z,17.55
2018-04-27T14:51:36.663Z,17.55
2018-04-27T14:52:36.603Z,17.68
2018-04-27T14:53:36.518Z,17.64
2018-04-27T14:54:36.439Z,17.72
2018-04-27T14:55:36.363Z,17.82
2018-04-27T14:56:36.288Z,17.78
2018-04-27T14:57:36.215Z,17.78
2018-04-27T14:58:36.141Z,17.31
2018-04-27T14:59:36.075Z,17.01
2018-04-27T15:00:35.989Z,17.04
2018-04-27T15:01:35.922Z,17.08
2018-04-27T15:02:35.839Z,16.94
2018-04-27T15:03:35.766Z,17.07
2018-04-27T15:04:35.689Z,17.12
2018-04-27T15:05:35.614Z,16.97
2018-04-27T15:06:35.539Z,16.96
2018-04-27T15:07:35.464Z,16.96
2018-04-27T15:08:35.390Z,17.06
2018-04-27T15:09:35.304Z,17.25
2018-04-27T15:10:35.227Z,17.15
2018-04-27T15:11:35.152Z,17.19
2018-04-27T15:12:35.091Z,17.22
2018-04-27T15:13:35.002Z,17.07
2018-04-27T15:14:34.928Z,17.00
2018-04-27T15:15:34.852Z,17.04
2018-04-27T15:16:34.777Z,16.96
2018-04-27T15:17:34.702Z,17.03
2018-04-27T15:18:34.627Z,16.97
2018-04-27T15:19:34.552Z,17.00
2018-04-27T15:20:34.491Z,16.97
2018-04-27T15:21:34.403Z,16.93
2018-04-27T15:22:34.331Z,16.91
2018-04-27T15:23:34.241Z,16.96
2018-04-27T15:24:34.167Z,16.94
2018-04-27T15:25:34.091Z,17.14
2018-04-27T15:26:34.020Z,17.22
2018-04-27T15:27:33.948Z,17.23
2018-04-27T15:28:33.867Z,17.23
2018-04-27T15:29:33.792Z,17.41
2018-04-27T15:30:33.718Z,17.44
2018-04-27T15:31:33.642Z,17.54
2018-04-27T15:32:33.569Z,17.64
2018-04-27T15:33:33.481Z,17.58
2018-04-27T15:34:33.404Z,17.54
2018-04-27T15:35:33.329Z,17.30
2018-04-27T15:36:33.254Z,17.23
2018-04-27T15:37:33.179Z,17.19
2018-04-27T15:38:33.107Z,17.16
2018-04-27T15:39:33.029Z,17.08
2018-04-27T15:40:32.956Z,17.00
2018-04-27T15:41:32.880Z,16.89
2018-04-27T15:42:32.805Z,16.96
2018-04-27T15:43:32.729Z,16.81
2018-04-27T15:44:32.643Z,16.86
2018-04-27T15:45:32.568Z,16.86
2018-04-27T15:46:32.495Z,16.89
2018-04-27T15:47:32.423Z,16.88
2018-04-27T15:48:32.345Z,16.81
2018-04-27T15:49:32.269Z,16.79
2018-04-27T15:50:32.194Z,16.76
2018-04-27T15:51:32.119Z,16.83
2018-04-27T15:52:32.038Z,16.82
2018-04-27T15:53:31.957Z,16.75
2018-04-27T15:54:31.881Z,16.75
2018-04-27T15:55:31.806Z,16.89
2018-04-27T15:56:31.731Z,16.98
2018-04-27T15:57:31.665Z,16.98
2018-04-27T15:58:31.585Z,17.14
2018-04-27T15:59:31.507Z,17.22
2018-04-27T16:00:31.421Z,17.18
2018-04-27T16:01:31.345Z,17.30
2018-04-27T16:02:31.270Z,17.33
2018-04-27T16:03:31.195Z,17.31
2018-04-27T16:04:31.120Z,17.22
2018-04-27T16:05:31.047Z,17.08
2018-04-27T16:06:30.972Z,17.19
2018-04-27T16:07:30.896Z,17.31
2018-04-27T16:08:30.820Z,17.26
2018-04-27T16:09:30.787Z,17.23
2018-04-27T16:10:30.658Z,17.28
2018-04-27T16:11:30.583Z,17.30
2018-04-27T16:12:30.508Z,17.26
2018-04-27T16:13:30.434Z,17.31
2018-04-27T16:14:30.358Z,17.44
2018-04-27T16:15:30.283Z,17.23
2018-04-27T16:16:30.197Z,17.22
2018-04-27T16:17:30.121Z,17.12
2018-04-27T16:18:30.048Z,17.12
2018-04-27T16:19:29.971Z,17.16
2018-04-27T16:20:29.897Z,17.15
2018-04-27T16:21:29.823Z,17.18
2018-04-27T16:22:29.750Z,17.08
2018-04-27T16:23:29.672Z,17.12
2018-04-27T16:24:29.603Z,17.01
2018-04-27T16:25:29.510Z,16.97
2018-04-27T16:26:29.438Z,16.73
2018-04-27T16:27:29.373Z,16.89
2018-04-27T16:28:29.284Z,16.81
2018-04-27T16:29:29.210Z,16.82
2018-04-27T16:30:29.135Z,16.78
2018-04-27T16:31:29.061Z,16.75
2018-04-27T16:32:28.986Z,16.81
2018-04-27T16:33:28.900Z,16.81
2018-04-27T16:34:28.824Z,16.89
2018-04-27T16:35:28.749Z,16.98
2018-04-27T16:36:28.674Z,16.98
2018-04-27T16:37:28.600Z,17.07
2018-04-27T16:38:28.525Z,17.12
2018-04-27T16:39:28.449Z,17.18
2018-04-27T16:40:28.362Z,17.25
2018-04-27T16:41:28.301Z,17.25
2018-04-27T16:42:28.212Z,17.04
2018-04-27T16:43:28.136Z,16.98
2018-04-27T16:44:28.061Z,17.00
2018-04-27T16:45:28.000Z,17.08
2018-04-27T16:46:27.913Z,16.96
2018-04-27T16:47:27.838Z,16.89
2018-04-27T16:48:27.762Z,16.86
2018-04-27T16:49:27.676Z,16.89
2018-04-27T16:50:27.600Z,16.96
2018-04-27T16:51:27.525Z,17.03
2018-04-27T16:52:27.451Z,16.88
2018-04-27T16:53:27.376Z,16.86
2018-04-27T16:54:27.378Z,16.89
2018-04-27T16:55:27.212Z,16.78
2018-04-27T16:56:27.138Z,16.82
2018-04-27T16:57:27.064Z,16.78
2018-04-27T16:58:27.001Z,16.76
2018-04-27T16:59:26.913Z,16.71
2018-04-27T17:00:26.838Z,16.73
2018-04-27T17:01:26.768Z,16.81
2018-04-27T17:02:26.677Z,16.83
2018-04-27T17:03:26.603Z,16.76
2018-04-27T17:04:26.533Z,16.88
2018-04-27T17:05:26.452Z,16.79
2018-04-27T17:06:26.377Z,16.78
2018-04-27T17:07:26.291Z,16.70
2018-04-27T17:08:26.214Z,16.70
2018-04-27T17:09:26.179Z,16.64
2018-04-27T17:10:26.064Z,16.67
2018-04-27T17:11:25.992Z,16.68
2018-04-27T17:12:25.915Z,16.71
2018-04-27T17:13:25.916Z,16.76
2018-04-27T17:14:25.787Z,16.76
2018-04-27T17:15:25.679Z,16.68
2018-04-27T17:16:25.605Z,16.75
2018-04-27T17:17:25.528Z,16.76
2018-04-27T17:18:25.453Z,16.78
2018-04-27T17:19:25.426Z,16.76
2018-04-27T17:20:25.307Z,16.73
2018-04-27T17:21:25.216Z,16.78
2018-04-27T17:22:25.140Z,16.73
2018-04-27T17:23:25.066Z,16.70
2018-04-27T17:24:25.005Z,16.60
2018-04-27T17:25:24.909Z,16.46
2018-04-27T17:26:24.829Z,16.45
2018-04-27T17:27:24.765Z,16.34
2018-04-27T17:28:24.681Z,16.41
2018-04-27T17:29:24.605Z,16.38
2018-04-27T17:30:24.531Z,16.30
2018-04-27T17:31:24.441Z,16.39
2018-04-27T17:32:24.367Z,16.25
2018-04-27T17:33:24.305Z,16.17
2018-04-27T17:34:24.225Z,16.14
2018-04-27T17:35:24.181Z,16.11
2018-04-27T17:36:24.067Z,16.05
2018-04-27T17:37:23.980Z,16.12
2018-04-27T17:38:23.906Z,16.08
2018-04-27T17:39:23.831Z,16.21
2018-04-27T17:40:23.802Z,16.09
2018-04-27T17:41:23.682Z,16.09
2018-04-27T17:42:23.593Z,16.12
2018-04-27T17:43:23.597Z,16.08
2018-04-27T17:44:23.498Z,15.94
2018-04-27T17:45:23.368Z,15.94
2018-04-27T17:46:23.293Z,15.92
2018-04-27T17:47:23.207Z,15.80
2018-04-27T17:48:23.132Z,15.71
2018-04-27T17:49:23.060Z,15.69
2018-04-27T17:50:22.987Z,15.62
2018-04-27T17:51:22.895Z,15.54
2018-04-27T17:52:22.821Z,15.64
2018-04-27T17:53:22.751Z,15.46
2018-04-27T17:54:22.669Z,15.43
2018-04-27T17:55:22.594Z,15.41
2018-04-27T17:56:22.507Z,15.31
2018-04-27T17:57:22.434Z,15.44
2018-04-27T17:58:22.358Z,15.32
2018-04-27T17:59:22.355Z,15.35
2018-04-27T18:00:22.208Z,15.36
2018-04-27T18:01:22.122Z,15.34
2018-04-27T18:02:22.045Z,15.25
2018-04-27T18:03:21.982Z,15.23
2018-04-27T18:04:21.895Z,15.23
2018-04-27T18:05:21.820Z,15.25
2018-04-27T18:06:21.745Z,15.03
2018-04-27T18:07:21.659Z,15.01
2018-04-27T18:08:21.584Z,14.96
2018-04-27T18:09:21.509Z,15.01
2018-04-27T18:10:21.421Z,15.02
2018-04-27T18:11:21.346Z,14.96
2018-04-27T18:12:21.284Z,14.98
2018-04-27T18:13:21.185Z,14.91
2018-04-27T18:14:21.112Z,14.91
2018-04-27T18:15:21.035Z,14.80
2018-04-27T18:16:20.960Z,14.72
2018-04-27T18:17:20.873Z,14.65
2018-04-27T18:18:20.796Z,14.61
2018-04-27T18:19:20.722Z,14.57
2018-04-27T18:20:20.655Z,14.62
2018-04-27T18:21:20.561Z,14.51
2018-04-27T18:22:20.486Z,14.65
2018-04-27T18:23:20.410Z,14.62
2018-04-27T18:24:20.335Z,14.51
2018-04-27T18:25:20.249Z,14.45
2018-04-27T18:26:20.172Z,14.46
2018-04-27T18:27:20.101Z,14.45
2018-04-27T18:28:20.023Z,14.33
2018-04-27T18:29:19.936Z,14.46
2018-04-27T18:30:19.863Z,14.39
2018-04-27T18:31:19.787Z,14.27
2018-04-27T18:32:19.711Z,14.22
2018-04-27T18:33:19.677Z,14.20
2018-04-27T18:34:19.549Z,14.18
2018-04-27T18:35:19.474Z,14.15
2018-04-27T18:36:19.399Z,14.12
2018-04-27T18:37:19.311Z,14.03
2018-04-27T18:38:19.236Z,13.96
2018-04-27T18:39:19.183Z,14.00
2018-04-27T18:40:19.079Z,13.89
2018-04-27T18:41:19.000Z,13.84
2018-04-27T18:42:18.939Z,13.69
2018-04-27T18:43:18.854Z,13.71
2018-04-27T18:44:18.766Z,13.69
2018-04-27T18:45:18.690Z,13.55
2018-04-27T18:46:18.614Z,13.59
2018-04-27T18:47:18.540Z,13.59
2018-04-27T18:48:18.450Z,13.46
2018-04-27T18:49:18.375Z,13.41
2018-04-27T18:50:18.303Z,13.38
2018-04-27T18:51:18.213Z,13.38
2018-04-27T18:52:18.139Z,13.30
2018-04-27T18:53:18.069Z,13.36
2018-04-27T18:54:17.975Z,13.22
2018-04-27T18:55:17.904Z,13.25
2018-04-27T18:56:17.839Z,13.15
2018-04-27T18:57:17.772Z,13.14
2018-04-27T18:58:17.665Z,13.11
2018-04-27T18:59:17.589Z,13.08
2018-04-27T19:00:17.515Z,13.07
2018-04-27T19:01:17.494Z,13.00
2018-04-27T19:02:17.352Z,12.87
2018-04-27T19:03:17.279Z,12.85
2018-04-27T19:04:17.194Z,12.85
2018-04-27T19:05:17.116Z,12.78
2018-04-27T19:06:17.040Z,12.78
2018-04-27T19:07:16.952Z,12.72
2018-04-27T19:08:16.877Z,12.70
2018-04-27T19:09:16.802Z,12.79
2018-04-27T19:10:16.727Z,12.79
2018-04-27T19:11:16.640Z,12.78
2018-04-27T19:12:16.566Z,12.86
2018-04-27T19:13:16.479Z,12.87
2018-04-27T19:14:16.435Z,12.87
2018-04-27T19:15:16.329Z,12.93
2018-04-27T19:16:16.241Z,12.96
2018-04-27T19:17:16.166Z,12.93
2018-04-27T19:18:16.091Z,12.85
2018-04-27T19:19:16.007Z,12.85
2018-04-27T19:20:15.928Z,12.82
2018-04-27T19:21:15.853Z,12.79
2018-04-27T19:22:15.768Z,12.67
2018-04-27T19:23:15.697Z,12.67
2018-04-27T19:24:15.616Z,12.64
2018-04-27T19:25:15.532Z,12.57
2018-04-27T19:26:15.453Z,12.53
2018-04-27T19:27:15.379Z,12.62
2018-04-27T19:28:15.292Z,12.57
2018-04-27T19:29:15.220Z,12.57
2018-04-27T19:30:15.146Z,12.62
2018-04-27T19:31:15.056Z,12.54
2018-04-27T19:32:14.979Z,12.50
2018-04-27T19:33:14.906Z,12.56
2018-04-27T19:34:14.817Z,12.52
2018-04-27T19:35:14.743Z,12.46
2018-04-27T19:36:14.656Z,12.50
2018-04-27T19:37:14.580Z,12.57
2018-04-27T19:38:14.509Z,12.53
2018-04-27T19:39:14.419Z,12.47
2018-04-27T19:40:14.343Z,12.45
2018-04-27T19:41:14.270Z,12.37
2018-04-27T19:42:14.181Z,12.45
2018-04-27T19:43:14.105Z,12.41
2018-04-27T19:44:14.043Z,12.34
2018-04-27T19:45:13.944Z,12.35
2018-04-27T19:46:13.869Z,12.28
2018-04-27T19:47:13.794Z,12.28
2018-04-27T19:48:13.706Z,12.32
2018-04-27T19:49:13.644Z,12.37
2018-04-27T19:50:13.545Z,12.31
2018-04-27T19:51:13.473Z,12.31
2018-04-27T19:52:13.417Z,12.35
2018-04-27T19:53:13.307Z,12.31
2018-04-27T19:54:13.244Z,12.29
2018-04-27T19:55:13.160Z,12.35
2018-04-27T19:56:13.070Z,12.32
2018-04-27T19:57:12.995Z,12.31
2018-04-27T19:58:12.928Z,12.32
2018-04-27T19:59:12.845Z,12.29